Time;durP1;ratioP1;P1;durP2;ratioP2;P2;SDS_P1;SDS_P2;PMS_P1;PMS_P2;Temp;Humidity;BMP_temperature;BMP_pressure;BME280_temperature;BME280_humidity;BME280_pressure;Samples;Min_cycle;Max_cycle;Signal;HPM_P1;HPM_P2
2023/11/16 00:00:01;;;;;;;9.90;2.83;;;;;;;12.46;62.37;101517.09;4950347;28;114043;-74
2023/11/16 00:02:42;;;;;;;7.78;3.13;;;;;;;12.46;62.39;101507.34;4963903;28;125056;-75
2023/11/16 00:05:16;;;;;;;14.15;2.88;;;;;;;12.46;62.40;101503.81;4940485;28;123775;-75
2023/11/16 00:07:47;;;;;;;7.90;2.88;;;;;;;12.46;62.35;101509.13;4945094;28;114857;-75
2023/11/16 00:10:16;;;;;;;13.30;3.25;;;;;;;12.46;62.37;101509.13;4963072;28;114595;-75
2023/11/16 00:12:44;;;;;;;13.18;3.28;;;;;;;12.46;62.29;101511.78;4956701;28;126275;-75
2023/11/16 00:15:11;;;;;;;11.10;3.20;;;;;;;12.46;62.45;101512.66;4963448;28;124375;-76
2023/11/16 00:17:39;;;;;;;14.00;3.00;;;;;;;12.48;62.20;101517.91;4965977;28;113436;-76
2023/11/16 00:20:09;;;;;;;10.68;3.03;;;;;;;12.46;62.17;101512.66;4967857;28;113938;-75
2023/11/16 00:22:36;;;;;;;10.05;3.08;;;;;;;12.48;62.22;101509.94;4949775;28;124722;-75
2023/11/16 00:25:07;;;;;;;9.88;3.22;;;;;;;12.47;62.29;101508.22;4952234;28;123042;-75
2023/11/16 00:27:35;;;;;;;14.27;2.90;;;;;;;12.48;62.27;101512.59;4946517;28;115469;-75
2023/11/16 00:30:05;;;;;;;8.52;3.17;;;;;;;12.49;62.07;101516.09;4960886;28;114977;-75
2023/11/16 00:32:32;;;;;;;11.55;3.03;;;;;;;12.48;62.16;101515.25;4969783;28;125968;-75
2023/11/16 00:35:00;;;;;;;8.63;2.92;;;;;;;12.47;62.12;101516.19;4971244;28;123672;-74
2023/11/16 00:37:27;;;;;;;10.05;2.90;;;;;;;12.46;61.96;101522.41;4964821;28;115144;-76
2023/11/16 00:39:57;;;;;;;14.75;2.92;;;;;;;12.45;61.89;101515.38;4938078;28;114586;-75
2023/11/16 00:42:25;;;;;;;17.00;3.20;;;;;;;12.42;61.82;101511.06;4959540;28;123634;-75
2023/11/16 00:44:52;;;;;;;11.60;2.70;;;;;;;12.40;61.78;101501.44;4961474;28;122395;-75
2023/11/16 00:47:20;;;;;;;8.00;2.70;;;;;;;12.37;61.79;101506.88;4959392;28;114514;-76
2023/11/16 00:49:47;;;;;;;8.65;2.95;;;;;;;12.33;61.70;101499.97;4963358;28;113745;-75
2023/11/16 00:52:19;;;;;;;14.52;3.10;;;;;;;12.29;61.65;101503.69;4964463;28;124797;-76
2023/11/16 00:54:48;;;;;;;10.65;3.22;;;;;;;12.26;61.88;101510.84;4962478;28;122668;-75
2023/11/16 00:57:18;;;;;;;11.30;3.30;;;;;;;12.23;61.78;101516.28;4961462;28;114075;-76
2023/11/16 00:59:46;;;;;;;12.88;3.13;;;;;;;12.20;61.72;101515.53;4942439;28;113229;-77
2023/11/16 01:02:13;;;;;;;12.68;2.63;;;;;;;12.17;61.85;101518.34;4959125;28;123283;-76
2023/11/16 01:04:41;;;;;;;11.73;2.55;;;;;;;12.14;61.77;101516.66;4964788;28;123860;-75
2023/11/16 01:07:13;;;;;;;7.35;2.72;;;;;;;12.12;61.87;101513.19;4969758;28;114737;-75
2023/11/16 01:09:42;;;;;;;11.20;2.58;;;;;;;12.10;61.88;101517.69;4946439;28;115383;-76
2023/11/16 01:12:15;;;;;;;10.57;2.80;;;;;;;12.07;61.78;101520.47;4943577;28;124056;-75
2023/11/16 01:14:44;;;;;;;10.40;2.75;;;;;;;12.06;62.01;101518.75;4966866;28;123862;-75
2023/11/16 01:17:18;;;;;;;11.30;2.60;;;;;;;12.03;61.83;101516.22;4925048;28;114282;-75
2023/11/16 01:19:47;;;;;;;12.75;2.97;;;;;;;12.00;62.01;101513.72;4957452;28;115672;-76
2023/11/16 01:22:16;;;;;;;11.68;2.67;;;;;;;11.97;61.81;101511.16;4948909;28;124804;-75
2023/11/16 01:24:44;;;;;;;10.23;2.72;;;;;;;11.96;62.05;101504.09;4934531;28;122463;-76
2023/11/16 01:27:17;;;;;;;13.35;2.78;;;;;;;11.96;61.99;101509.41;4950951;28;114576;-76
2023/11/16 01:29:46;;;;;;;11.80;3.05;;;;;;;11.94;62.16;101508.63;4940028;28;115912;-74
2023/11/16 01:32:13;;;;;;;9.77;2.78;;;;;;;11.94;62.17;101508.63;4962578;28;123937;-75
2023/11/16 01:34:42;;;;;;;7.15;2.80;;;;;;;11.94;62.12;101513.94;4966385;28;124629;-75
2023/11/16 01:37:10;;;;;;;12.48;2.60;;;;;;;11.94;62.04;101508.63;4948340;28;113484;-75
2023/11/16 01:39:40;;;;;;;8.57;2.50;;;;;;;11.94;62.33;101514.81;4946375;28;115223;-75
2023/11/16 01:42:09;;;;;;;10.77;3.45;;;;;;;11.93;62.06;101502.44;4967439;28;124586;-75
2023/11/16 01:44:38;;;;;;;8.82;2.72;;;;;;;11.94;62.56;101498.00;4949316;28;125244;-75
2023/11/16 01:47:08;;;;;;;10.65;2.75;;;;;;;11.94;62.14;101503.31;4949250;28;115609;-75
2023/11/16 01:49:37;;;;;;;10.63;3.00;;;;;;;11.96;62.33;101501.47;4948732;28;113987;-75
2023/11/16 01:52:06;;;;;;;8.20;2.80;;;;;;;11.97;62.20;101503.19;4942615;28;123845;-75
2023/11/16 01:54:35;;;;;;;6.82;2.70;;;;;;;11.97;62.25;101497.88;4944883;28;123136;-75
2023/11/16 01:57:04;;;;;;;9.65;2.97;;;;;;;11.98;62.30;101504.91;4964272;28;115052;-75
2023/11/16 01:59:34;;;;;;;10.55;2.75;;;;;;;11.99;62.22;101506.66;4959353;28;115273;-75
2023/11/16 02:02:05;;;;;;;7.57;2.30;;;;;;;12.02;62.36;101511.84;4930889;28;125244;-74
2023/11/16 02:04:34;;;;;;;10.90;2.40;;;;;;;12.04;62.35;101512.66;4956605;28;125547;-76
2023/11/16 02:07:05;;;;;;;12.90;2.53;;;;;;;12.07;62.32;101509.84;4966588;28;115314;-75
2023/11/16 02:09:32;;;;;;;11.10;3.15;;;;;;;12.08;62.25;101520.41;4965668;28;114673;-75
2023/11/16 02:12:00;;;;;;;6.90;2.53;;;;;;;12.10;62.19;101520.34;4960799;28;125008;-75
2023/11/16 02:14:28;;;;;;;8.45;2.65;;;;;;;12.11;62.12;101511.47;4961943;28;122698;-75
2023/11/16 02:16:55;;;;;;;15.32;2.85;;;;;;;12.12;62.02;101513.19;4943125;28;113404;-75
2023/11/16 02:19:30;;;;;;;10.40;2.78;;;;;;;12.12;62.13;101513.19;4968261;28;114313;-75
2023/11/16 02:21:58;;;;;;;10.73;2.65;;;;;;;12.13;62.11;101520.25;4933869;28;125672;-75
2023/11/16 02:24:27;;;;;;;13.63;3.10;;;;;;;12.13;61.95;101517.59;4951057;28;122976;-75
2023/11/16 02:26:55;;;;;;;9.30;2.70;;;;;;;12.13;62.26;101512.28;4932674;28;114514;-75
2023/11/16 02:29:24;;;;;;;11.13;2.33;;;;;;;12.14;62.21;101508.69;4954520;28;114426;-75
2023/11/16 02:31:53;;;;;;;10.02;2.67;;;;;;;12.13;62.10;101509.63;4947815;28;124871;-75
2023/11/16 02:34:21;;;;;;;8.00;2.45;;;;;;;12.14;62.12;101506.03;4952927;28;125965;-75
2023/11/16 02:36:48;;;;;;;13.63;3.13;;;;;;;12.14;62.05;101511.34;4963002;28;114158;-75
2023/11/16 02:39:16;;;;;;;9.32;2.60;;;;;;;12.16;62.11;101508.63;4942319;28;114631;-75
2023/11/16 02:41:45;;;;;;;8.45;3.22;;;;;;;12.15;62.14;101507.75;4962528;28;123684;-75
2023/11/16 02:44:13;;;;;;;9.48;2.88;;;;;;;12.16;62.28;101512.13;4940927;28;125424;-75
2023/11/16 02:46:40;;;;;;;10.55;2.63;;;;;;;12.15;62.06;101507.75;4963921;28;113716;-74
2023/11/16 02:49:07;;;;;;;7.47;2.50;;;;;;;12.15;62.03;101513.09;4944636;28;114345;-75
2023/11/16 02:51:34;;;;;;;9.23;2.95;;;;;;;12.16;61.92;101513.94;4961812;28;123951;-74
2023/11/16 02:54:06;;;;;;;10.10;2.60;;;;;;;12.16;62.10;101509.47;4944119;28;122581;-75
2023/11/16 02:56:34;;;;;;;12.20;2.50;;;;;;;12.15;62.08;101513.09;4946334;28;115237;-75
2023/11/16 02:59:02;;;;;;;8.30;2.40;;;;;;;12.14;61.71;101516.66;4940337;28;115091;-75
2023/11/16 03:01:32;;;;;;;10.00;2.95;;;;;;;12.14;62.09;101521.97;4943183;28;123214;-76
2023/11/16 03:03:59;;;;;;;8.98;2.63;;;;;;;12.15;62.05;101522.81;4962070;28;124415;-75
2023/11/16 03:06:27;;;;;;;15.02;3.00;;;;;;;12.14;62.09;101521.97;4942818;28;114853;-75
2023/11/16 03:08:54;;;;;;;8.85;2.97;;;;;;;12.14;62.04;101521.09;4947464;28;114058;-75
2023/11/16 03:11:22;;;;;;;12.07;2.95;;;;;;;12.15;62.05;101514.84;4949727;28;124678;-75
2023/11/16 03:13:49;;;;;;;8.35;2.90;;;;;;;12.13;62.04;101514.94;4967071;28;123249;-74
2023/11/16 03:16:17;;;;;;;12.10;2.83;;;;;;;12.13;62.18;101514.03;4933447;28;115245;-74
2023/11/16 03:18:45;;;;;;;11.25;2.78;;;;;;;12.12;62.09;101515.84;4945509;28;113579;-74
2023/11/16 03:21:12;;;;;;;9.05;3.08;;;;;;;12.14;62.10;101511.34;4946077;28;124266;-75
2023/11/16 03:23:39;;;;;;;10.63;3.15;;;;;;;12.13;62.14;101514.94;4958988;28;124618;-75
2023/11/16 03:26:06;;;;;;;9.23;2.65;;;;;;;12.12;62.13;101518.50;4966167;28;113934;-75
2023/11/16 03:28:35;;;;;;;12.15;3.05;;;;;;;12.13;62.32;101522.91;4958770;28;116135;-74
2023/11/16 03:31:06;;;;;;;9.40;2.75;;;;;;;12.12;62.19;101526.47;4970686;28;124337;-75
2023/11/16 03:33:34;;;;;;;13.18;3.20;;;;;;;12.12;62.08;101518.50;4960448;28;123805;-75
2023/11/16 03:36:01;;;;;;;7.35;3.10;;;;;;;12.12;62.24;101523.81;4961225;28;114175;-75
2023/11/16 03:38:30;;;;;;;7.85;3.00;;;;;;;12.13;62.18;101519.34;4960390;28;114076;-75
2023/11/16 03:40:58;;;;;;;13.25;3.22;;;;;;;12.11;62.23;101522.09;4941542;28;125481;-75
2023/11/16 03:43:25;;;;;;;9.57;3.10;;;;;;;12.10;62.26;101523.00;4961169;28;124316;-75
2023/11/16 03:45:52;;;;;;;9.57;3.20;;;;;;;12.10;62.36;101515.03;4960050;28;116390;-75
2023/11/16 03:48:22;;;;;;;10.27;3.50;;;;;;;12.11;62.41;101521.22;4943127;28;115839;-75
2023/11/16 03:50:50;;;;;;;9.52;3.10;;;;;;;12.10;62.45;101515.03;4958368;28;124309;-75
2023/11/16 03:53:17;;;;;;;10.68;3.17;;;;;;;12.11;62.44;101527.41;4959317;28;121674;-76
2023/11/16 03:55:44;;;;;;;10.15;3.42;;;;;;;12.11;62.52;101522.09;4967703;28;114513;-75
2023/11/16 03:58:12;;;;;;;11.52;3.08;;;;;;;12.09;62.53;101518.63;4961780;28;114567;-76
2023/11/16 04:00:39;;;;;;;12.00;3.60;;;;;;;12.08;62.66;101522.22;4970690;28;124708;-75
2023/11/16 04:03:07;;;;;;;10.85;3.30;;;;;;;12.07;62.80;101507.19;4953114;28;123643;-76
2023/11/16 04:05:35;;;;;;;10.95;3.40;;;;;;;12.07;62.84;101510.75;4931647;28;113006;-75
2023/11/16 04:08:05;;;;;;;12.25;3.90;;;;;;;12.06;62.86;101508.13;4947188;28;115572;-76
2023/11/16 04:10:32;;;;;;;11.93;3.70;;;;;;;12.06;62.87;101508.13;4961776;28;125651;-75
2023/11/16 04:13:03;;;;;;;13.10;4.13;;;;;;;12.04;62.86;101504.69;4931083;28;124976;-76
2023/11/16 04:15:31;;;;;;;12.52;4.22;;;;;;;12.02;63.03;101502.09;4946724;28;116003;-75
2023/11/16 04:17:59;;;;;;;17.33;3.85;;;;;;;11.99;63.14;101490.72;4969368;28;114265;-75
2023/11/16 04:20:28;;;;;;;9.75;3.75;;;;;;;11.95;63.02;101489.13;4968005;28;124996;-75
2023/11/16 04:22:55;;;;;;;12.73;4.32;;;;;;;11.92;63.15;101486.59;4928693;28;124483;-75
2023/11/16 04:25:27;;;;;;;12.57;3.63;;;;;;;11.91;63.28;101490.19;4970974;28;114649;-75
2023/11/16 04:28:02;;;;;;;11.43;4.05;;;;;;;11.90;63.38;101493.75;4954089;28;116426;-75
2023/11/16 04:30:34;;;;;;;10.75;4.03;;;;;;;11.87;63.32;101498.22;4954136;28;124130;-75
2023/11/16 04:33:02;;;;;;;15.10;4.38;;;;;;;11.85;63.55;101500.06;4969501;28;125238;-76
2023/11/16 04:35:31;;;;;;;13.27;4.47;;;;;;;11.85;63.42;101497.41;4954710;28;114769;-75
2023/11/16 04:38:01;;;;;;;11.70;3.80;;;;;;;11.83;63.60;101496.63;4971449;28;114921;-77
2023/11/16 04:40:28;;;;;;;17.45;4.40;;;;;;;11.83;63.61;101495.78;4964120;28;122786;-75
2023/11/16 04:42:55;;;;;;;10.43;4.28;;;;;;;11.83;63.95;101488.66;4930072;28;123087;-76
2023/11/16 04:45:22;;;;;;;13.88;4.53;;;;;;;11.82;63.91;101489.56;4950739;28;115148;-76
2023/11/16 04:47:51;;;;;;;11.98;4.22;;;;;;;11.81;63.84;101495.81;4959119;28;114990;-75
2023/11/16 04:50:18;;;;;;;11.02;4.15;;;;;;;11.80;63.82;101494.09;4960365;28;123586;-75
2023/11/16 04:52:46;;;;;;;14.18;5.15;;;;;;;11.79;64.05;101494.13;4947364;28;124332;-76
2023/11/16 04:55:15;;;;;;;14.85;4.07;;;;;;;11.78;64.01;101509.19;4947159;28;113240;-75
2023/11/16 04:57:43;;;;;;;12.07;4.70;;;;;;;11.77;63.99;101512.78;4960899;28;114182;-75
2023/11/16 05:00:13;;;;;;;14.07;4.65;;;;;;;11.77;63.94;101512.78;4961545;28;123584;-76
2023/11/16 05:02:41;;;;;;;15.07;5.13;;;;;;;11.74;64.10;101499.63;4935663;28;122809;-75
2023/11/16 05:05:09;;;;;;;11.10;4.55;;;;;;;11.74;64.26;101502.28;4959781;28;113974;-75
2023/11/16 05:07:36;;;;;;;14.95;4.85;;;;;;;11.73;64.05;101484.63;4938055;28;114023;-75
2023/11/16 05:10:10;;;;;;;14.13;4.63;;;;;;;11.72;64.09;101488.22;5006408;22;124730;-76
2023/11/16 05:12:39;;;;;;;13.70;4.63;;;;;;;11.71;64.01;101486.47;4998995;28;123768;-78
2023/11/16 05:15:07;;;;;;;14.10;4.28;;;;;;;11.69;64.33;101473.25;5002760;28;114327;-78
2023/11/16 05:17:35;;;;;;;11.98;4.30;;;;;;;11.70;64.27;101468.84;5002497;28;114149;-77
2023/11/16 05:20:04;;;;;;;12.93;4.43;;;;;;;11.71;64.34;101481.16;5001916;28;123731;-77
2023/11/16 05:22:33;;;;;;;15.18;4.45;;;;;;;11.70;64.30;101476.81;5005033;28;124066;-78
2023/11/16 05:25:00;;;;;;;12.63;4.13;;;;;;;11.69;64.21;101480.38;4988531;28;114840;-78
2023/11/16 05:27:28;;;;;;;13.57;4.78;;;;;;;11.69;64.30;101477.72;5010311;28;115215;-79
2023/11/16 05:30:11;;;;;;;12.68;4.43;;;;;;;11.67;64.35;101474.25;5001730;28;124856;-78
2023/11/16 05:32:39;;;;;;;11.32;4.07;;;;;;;11.66;64.27;101483.16;5017232;28;123741;-78
2023/11/16 05:35:08;;;;;;;10.88;4.32;;;;;;;11.66;64.62;101488.47;5014268;28;114193;-78
2023/11/16 05:37:36;;;;;;;14.20;4.60;;;;;;;11.67;64.42;101468.97;4996828;28;113985;-78
2023/11/16 05:40:06;;;;;;;10.07;4.60;;;;;;;11.66;64.39;101472.56;5003331;28;124542;-78
2023/11/16 05:42:33;;;;;;;17.42;4.78;;;;;;;11.65;64.11;101461.06;4994727;28;124010;-78
2023/11/16 05:45:02;;;;;;;11.10;4.22;;;;;;;11.66;64.46;101461.94;5011874;28;114946;-77
2023/11/16 05:47:30;;;;;;;8.80;4.38;;;;;;;11.65;64.33;101454.88;5006453;28;115221;-76
2023/11/16 05:49:57;;;;;;;10.63;4.25;;;;;;;11.64;64.27;101453.16;5014513;28;124049;-78
2023/11/16 05:52:25;;;;;;;13.52;4.53;;;;;;;11.64;64.20;101447.84;5001357;28;124188;-76
2023/11/16 05:55:06;;;;;;;10.95;4.43;;;;;;;11.63;64.34;101459.41;5000389;28;114211;-77
2023/11/16 05:57:35;;;;;;;14.32;4.45;;;;;;;11.63;64.35;101456.75;5005720;28;113947;-76
2023/11/16 06:00:07;;;;;;;10.35;4.20;;;;;;;11.62;64.34;101460.31;5015477;28;123981;-76
2023/11/16 06:02:40;;;;;;;13.00;4.30;;;;;;;11.61;64.45;101461.25;5018005;28;125312;-77
2023/11/16 06:05:11;;;;;;;12.85;4.50;;;;;;;11.62;64.28;101460.31;5000588;28;113203;-76
2023/11/16 06:07:42;;;;;;;11.43;4.47;;;;;;;11.62;64.33;101449.69;5002971;28;114813;-77
2023/11/16 06:10:10;;;;;;;9.73;4.25;;;;;;;11.64;64.22;101453.16;5010864;28;123764;-77
2023/11/16 06:12:38;;;;;;;9.80;4.43;;;;;;;11.63;64.28;101451.44;5016159;28;124353;-77
2023/11/16 06:15:07;;;;;;;12.85;4.32;;;;;;;11.63;64.28;101446.97;5014851;28;115338;-77
2023/11/16 06:17:46;;;;;;;10.77;4.03;;;;;;;11.64;64.25;101447.84;4998855;28;114714;-77
2023/11/16 06:20:15;;;;;;;9.80;3.90;;;;;;;11.64;64.17;101447.84;5001682;28;124782;-77
2023/11/16 06:22:52;;;;;;;14.00;4.53;;;;;;;11.64;64.16;101437.22;5008184;28;124690;-76
2023/11/16 06:25:20;;;;;;;13.35;4.47;;;;;;;11.61;64.22;101442.69;4996414;28;114613;-77
2023/11/16 06:27:50;;;;;;;10.10;3.95;;;;;;;11.62;64.25;101455.00;5012257;28;113603;-77
2023/11/16 06:30:18;;;;;;;15.13;4.40;;;;;;;11.61;64.22;101442.69;4991789;28;122292;-77
2023/11/16 06:32:47;;;;;;;14.63;4.00;;;;;;;11.60;64.23;101446.25;5010243;28;123746;-77
2023/11/16 06:35:15;;;;;;;13.10;4.25;;;;;;;11.57;64.29;101447.22;4993674;28;114695;-77
2023/11/16 06:37:44;;;;;;;10.52;3.75;;;;;;;11.57;64.35;101449.03;5006726;28;113762;-77
2023/11/16 06:40:12;;;;;;;10.23;4.10;;;;;;;11.56;64.29;101447.28;5014194;28;124736;-77
2023/11/16 06:43:06;;;;;;;10.13;3.65;;;;;;;11.54;64.27;101442.03;5011398;28;124676;-77
2023/11/16 06:45:39;;;;;;;9.60;3.72;;;;;;;11.55;64.30;101442.94;5013545;28;113951;-77
2023/11/16 06:48:09;;;;;;;11.73;3.95;;;;;;;11.53;64.32;101439.44;4995662;28;113602;-78
2023/11/16 06:50:38;;;;;;;12.82;4.25;;;;;;;11.53;64.39;101439.44;5006460;28;123645;-77
2023/11/16 06:53:06;;;;;;;11.02;4.07;;;;;;;11.50;64.02;101441.28;5008249;28;123765;-77
2023/11/16 06:55:33;;;;;;;19.13;4.07;;;;;;;11.53;64.35;101428.84;5010355;28;114224;-77
2023/11/16 06:58:09;;;;;;;9.93;3.30;;;;;;;11.53;64.41;101434.13;4982415;28;113089;-77
2023/11/16 07:00:36;;;;;;;;;;;;;;;11.50;64.26;101430.69;5007065;28;124341;-76
2023/11/16 07:03:25;;;;;;;11.30;3.20;;;;;;;11.50;64.21;101425.38;5015461;28;125050;-76
2023/11/16 07:05:53;;;;;;;8.40;3.80;;;;;;;11.48;64.27;101416.63;4993938;28;115492;-76
2023/11/16 07:08:22;;;;;;;12.05;3.85;;;;;;;11.49;64.22;101418.34;5008977;28;114660;-78
2023/11/16 07:10:50;;;;;;;11.93;3.88;;;;;;;11.49;64.45;101418.34;5007760;28;124406;-77
2023/11/16 07:13:19;;;;;;;14.30;4.35;;;;;;;11.50;64.28;101409.47;4997370;28;122938;-77
2023/11/16 07:15:49;;;;;;;9.52;3.50;;;;;;;11.50;64.25;101406.81;5014745;28;114011;-77
2023/11/16 07:18:19;;;;;;;12.65;3.83;;;;;;;11.50;64.25;101404.16;5016349;28;114533;-77
2023/11/16 07:20:48;;;;;;;12.20;4.22;;;;;;;11.50;64.28;101393.53;4997366;28;122774;-78
2023/11/16 07:23:16;;;;;;;10.80;3.65;;;;;;;11.50;63.80;101379.44;5006938;28;123372;-75
2023/11/16 07:26:00;;;;;;;8.77;3.83;;;;;;;11.50;64.20;101382.09;5009039;28;113706;-76
2023/11/16 07:28:56;;;;;;;9.90;3.67;;;;;;;11.48;64.07;101376.84;4998569;28;114314;-76
2023/11/16 07:31:28;;;;;;;13.10;3.97;;;;;;;11.47;64.32;101372.47;5010544;28;123690;-78
2023/11/16 07:33:57;;;;;;;12.20;3.72;;;;;;;11.47;64.17;101372.47;4996023;28;123942;-78
2023/11/16 07:36:31;;;;;;;12.52;3.78;;;;;;;11.47;64.30;101379.53;5000066;28;114346;-79
2023/11/16 07:38:59;;;;;;;10.90;3.95;;;;;;;11.47;64.37;101385.72;4994199;28;114105;-78
2023/11/16 07:41:44;;;;;;;10.73;3.67;;;;;;;11.48;64.45;101387.44;4992744;28;125849;-78
2023/11/16 07:44:12;;;;;;;8.60;3.63;;;;;;;11.52;64.45;101384.69;5011937;28;124419;-79
2023/11/16 07:46:41;;;;;;;7.55;3.00;;;;;;;11.50;64.50;101377.63;5011370;28;114493;-78
2023/11/16 07:49:12;;;;;;;8.02;3.22;;;;;;;11.55;64.43;101384.56;4968347;28;114231;-78
2023/11/16 07:51:41;;;;;;;13.13;3.47;;;;;;;11.55;64.33;101379.25;5009806;28;124298;-79
2023/11/16 07:54:11;;;;;;;10.00;3.45;;;;;;;11.55;64.35;101374.81;5004300;28;123726;-79
2023/11/16 07:56:45;;;;;;;8.00;3.15;;;;;;;11.58;64.44;101373.81;4999561;28;115261;-78
2023/11/16 07:59:18;;;;;;;10.93;3.25;;;;;;;11.60;64.28;101366.66;5011070;28;115142;-79
2023/11/16 08:01:55;;;;;;;12.82;3.53;;;;;;;11.61;64.19;101368.38;5015512;28;123758;-77
2023/11/16 08:04:25;;;;;;;11.38;3.42;;;;;;;11.61;64.16;101363.09;4997397;28;124258;-78
2023/11/16 08:06:56;;;;;;;13.20;3.72;;;;;;;11.60;64.17;101364.00;5010993;28;114855;-76
2023/11/16 08:09:26;;;;;;;10.18;3.17;;;;;;;11.59;64.28;101364.94;5006319;28;114032;-77
2023/11/16 08:11:54;;;;;;;14.65;3.30;;;;;;;11.60;64.26;101361.34;4996554;28;123276;-77
2023/11/16 08:14:32;;;;;;;11.32;3.22;;;;;;;11.61;64.15;101357.78;5017419;28;123709;-77
2023/11/16 08:17:00;;;;;;;10.30;3.13;;;;;;;11.62;64.22;101343.56;5007046;28;114286;-77
2023/11/16 08:19:31;;;;;;;11.23;3.20;;;;;;;11.63;64.09;101345.31;4997399;28;113366;-77
2023/11/16 08:22:01;;;;;;;12.52;3.53;;;;;;;11.63;64.20;101345.31;5003129;28;124259;-78
2023/11/16 08:24:30;;;;;;;10.93;3.25;;;;;;;11.66;64.12;101337.22;5005495;28;124848;-78
2023/11/16 08:26:58;;;;;;;14.35;3.33;;;;;;;11.68;64.33;101338.88;5001084;28;115169;-78
2023/11/16 08:29:27;;;;;;;12.95;3.40;;;;;;;11.73;64.22;101340.47;5012869;28;113988;-77
2023/11/16 08:31:56;;;;;;;10.43;3.13;;;;;;;11.75;64.16;101334.16;5008924;28;124855;-78
2023/11/16 08:34:27;;;;;;;9.57;3.00;;;;;;;11.78;64.33;101339.34;5010247;28;124692;-77
2023/11/16 08:36:56;;;;;;;8.50;3.10;;;;;;;11.81;64.15;101343.66;5005240;28;114112;-77
2023/11/16 08:39:26;;;;;;;9.88;3.25;;;;;;;11.83;64.17;101341.84;5013183;28;113871;-77
2023/11/16 08:41:54;;;;;;;8.40;2.85;;;;;;;11.85;64.25;101351.44;5013621;28;124120;-78
2023/11/16 08:44:25;;;;;;;9.35;3.70;;;;;;;11.87;64.14;101344.28;5013022;28;123921;-77
2023/11/16 08:46:57;;;;;;;15.52;3.70;;;;;;;11.90;64.14;101347.75;5014417;28;114808;-77
2023/11/16 08:49:25;;;;;;;12.68;3.40;;;;;;;11.92;64.12;101335.28;5011068;28;115033;-77
2023/11/16 08:51:58;;;;;;;11.07;3.55;;;;;;;11.95;64.15;101332.50;4995506;28;123253;-78
2023/11/16 08:54:30;;;;;;;11.00;3.70;;;;;;;11.95;63.89;101330.72;5009085;28;124493;-77
2023/11/16 08:56:58;;;;;;;10.13;3.70;;;;;;;11.97;64.10;101317.38;4996249;28;114422;-78
2023/11/16 08:59:58;;;;;;;11.68;3.60;;;;;;;11.98;64.01;101319.09;5012416;28;114414;-78
2023/11/16 09:02:25;;;;;;;10.35;3.60;;;;;;;11.99;63.90;101318.16;5015375;28;124092;-78
2023/11/16 09:05:00;;;;;;;12.07;3.50;;;;;;;11.99;64.05;101323.47;5014541;28;124795;-78
2023/11/16 09:07:28;;;;;;;11.65;3.90;;;;;;;11.99;64.09;101326.13;5011048;28;114230;-77
2023/11/16 09:09:59;;;;;;;11.77;3.22;;;;;;;12.00;64.03;101325.22;4993548;28;113079;-77
2023/11/16 09:12:31;;;;;;;12.15;4.07;;;;;;;12.01;64.01;101324.28;5011376;28;124225;-77
2023/11/16 09:14:58;;;;;;;15.20;3.55;;;;;;;12.01;64.10;101329.59;5012786;28;123931;-78
2023/11/16 09:17:27;;;;;;;14.38;3.70;;;;;;;12.04;64.07;101324.16;5012876;28;113964;-77
2023/11/16 09:19:54;;;;;;;11.30;3.72;;;;;;;12.06;64.14;101324.94;5006859;28;113758;-78
2023/11/16 09:22:23;;;;;;;15.60;3.70;;;;;;;12.06;63.98;101325.78;4997249;28;124155;-78
2023/11/16 09:24:51;;;;;;;12.23;4.10;;;;;;;12.07;63.96;101324.88;5012610;28;123910;-77
2023/11/16 09:27:18;;;;;;;12.02;3.92;;;;;;;12.08;63.92;101320.44;5013138;28;113901;-77
2023/11/16 09:29:51;;;;;;;12.15;3.55;;;;;;;12.10;63.93;101317.72;5012029;28;113321;-78
2023/11/16 09:32:19;;;;;;;9.68;3.50;;;;;;;12.10;64.02;101313.25;5004587;28;123954;-78
2023/11/16 09:34:46;;;;;;;17.30;5.13;;;;;;;12.14;63.97;101309.53;5012628;28;124087;-78
2023/11/16 09:37:14;;;;;;;18.73;5.95;;;;;;;12.14;63.93;101304.22;5002519;28;116019;-77
2023/11/16 09:39:41;;;;;;;19.05;6.97;;;;;;;12.16;63.91;101312.97;4998435;28;114859;-78
2023/11/16 09:42:15;;;;;;;22.60;7.18;;;;;;;12.16;63.95;101302.34;5014945;28;124080;-78
2023/11/16 09:45:00;;;;;;;22.17;7.20;;;;;;;12.18;63.87;101300.50;4984004;28;123573;-78
2023/11/16 09:47:31;;;;;;;18.42;6.35;;;;;;;12.20;63.85;101293.31;4999931;28;114510;-78
2023/11/16 09:49:59;;;;;;;17.80;4.88;;;;;;;12.22;63.87;101291.47;4994817;28;114533;-77
2023/11/16 09:52:31;;;;;;;17.52;4.47;;;;;;;12.23;63.89;101295.84;4998442;28;124499;-78
2023/11/16 09:55:01;;;;;;;10.73;3.90;;;;;;;12.24;63.75;101302.91;4996302;28;123185;-78
2023/11/16 09:57:37;;;;;;;13.63;3.97;;;;;;;12.21;63.65;101289.75;5001911;28;114330;-77
2023/11/16 10:00:23;;;;;;;12.35;3.72;;;;;;;12.19;63.56;101286.28;4977737;28;114040;-78
2023/11/16 10:02:55;;;;;;;11.73;3.67;;;;;;;12.18;63.54;101284.56;4996578;28;123833;-78
2023/11/16 10:05:30;;;;;;;13.02;3.80;;;;;;;12.14;63.45;101272.34;5012683;28;124689;-76
2023/11/16 10:08:01;;;;;;;9.32;3.42;;;;;;;12.10;63.41;101278.75;5013137;28;114554;-77
2023/11/16 10:10:54;;;;;;;11.32;4.20;;;;;;;12.06;63.65;101274.50;5011377;28;114564;-77
2023/11/16 10:13:24;;;;;;;9.32;4.30;;;;;;;12.02;63.64;101267.59;5013154;28;123457;-76
2023/11/16 10:15:54;;;;;;;15.50;4.60;;;;;;;12.00;63.63;101258.84;5009218;28;123778;-77
2023/11/16 10:18:24;;;;;;;15.77;4.68;;;;;;;11.98;63.68;101269.53;5013138;28;115307;-77
2023/11/16 10:20:51;;;;;;;11.23;4.55;;;;;;;11.99;63.81;101267.72;5014470;28;113712;-76
2023/11/16 10:23:19;;;;;;;13.07;4.30;;;;;;;12.00;64.08;101258.84;5015918;28;124303;-78
2023/11/16 10:25:49;;;;;;;11.10;4.45;;;;;;;12.00;63.77;101258.84;5010842;28;124478;-75
2023/11/16 10:28:17;;;;;;;12.75;4.32;;;;;;;12.00;63.75;101256.19;4997939;28;115788;-75
2023/11/16 10:30:47;;;;;;;11.85;4.35;;;;;;;12.03;63.88;101258.69;5005468;28;114364;-75
2023/11/16 10:33:19;;;;;;;15.73;4.85;;;;;;;12.03;63.89;101256.91;5010352;28;123710;-75
2023/11/16 10:35:49;;;;;;;15.00;4.72;;;;;;;12.05;63.98;101252.41;5007411;28;124396;-76
2023/11/16 10:38:21;;;;;;;14.27;4.40;;;;;;;12.08;64.00;101252.25;4997488;28;114309;-75
2023/11/16 10:40:51;;;;;;;11.18;5.13;;;;;;;12.11;64.06;101245.97;4992613;28;114604;-78
2023/11/16 10:43:26;;;;;;;16.83;4.90;;;;;;;12.12;63.96;101239.69;5018274;28;124298;-78
2023/11/16 10:45:59;;;;;;;12.75;5.40;;;;;;;12.16;64.18;101233.31;5016484;28;124235;-77
2023/11/16 10:48:28;;;;;;;17.90;5.00;;;;;;;12.19;64.14;101233.19;4999994;28;112436;-78
2023/11/16 10:51:00;;;;;;;13.55;4.90;;;;;;;12.24;63.82;101231.19;5015197;28;113941;-79
2023/11/16 10:53:33;;;;;;;12.30;5.18;;;;;;;12.28;64.11;101237.19;5015872;28;123351;-78
2023/11/16 10:56:26;;;;;;;13.18;5.13;;;;;;;12.32;63.92;101227.28;4997396;28;124116;-79
2023/11/16 10:58:54;;;;;;;10.75;4.90;;;;;;;12.33;63.99;101223.72;5007564;28;113365;-78
2023/11/16 11:01:24;;;;;;;15.15;5.43;;;;;;;12.38;63.91;101221.72;4997384;28;112952;-77
2023/11/16 11:03:56;;;;;;;15.70;5.03;;;;;;;12.40;63.81;101214.53;5009169;28;123487;-78
2023/11/16 11:06:25;;;;;;;10.13;5.13;;;;;;;12.38;63.69;101203.13;5012048;28;124493;-78
2023/11/16 11:08:55;;;;;;;17.55;5.60;;;;;;;12.39;63.75;101207.50;5009108;28;114911;-78
2023/11/16 11:11:24;;;;;;;18.92;5.90;;;;;;;12.39;63.66;101203.03;5027165;28;114049;-79
2023/11/16 11:14:05;;;;;;;13.80;5.38;;;;;;;12.43;64.07;101198.44;5023156;28;124149;-79
2023/11/16 11:16:34;;;;;;;15.38;5.18;;;;;;;12.44;63.92;101189.56;5025407;28;123955;-79
2023/11/16 11:19:07;;;;;;;15.27;5.10;;;;;;;12.46;63.93;101182.38;5030980;28;115137;-80
2023/11/16 11:21:36;;;;;;;13.70;5.10;;;;;;;12.48;64.01;101175.19;5025009;28;115082;-79
2023/11/16 11:24:06;;;;;;;11.30;5.22;;;;;;;12.50;63.90;101177.78;5028920;28;123858;-80